createdAt,value
2022-08-30T00:01:22.406Z,10.38
2022-08-30T00:03:49.676Z,10.00
2022-08-30T00:06:17.966Z,10.15
2022-08-30T00:08:45.521Z,10.65
2022-08-30T00:11:14.649Z,9.95
2022-08-30T00:13:42.794Z,10.18
2022-08-30T00:16:10.136Z,9.88
2022-08-30T00:18:38.157Z,8.52
2022-08-30T00:21:05.753Z,8.10
2022-08-30T00:23:33.057Z,10.38
2022-08-30T00:26:01.881Z,8.25
2022-08-30T00:28:28.881Z,9.97
2022-08-30T00:30:56.050Z,8.45
2022-08-30T00:33:23.353Z,9.88
2022-08-30T00:35:50.478Z,9.73
2022-08-30T00:38:18.040Z,8.82
2022-08-30T00:40:45.768Z,8.27
2022-08-30T00:43:19.739Z,9.50
2022-08-30T00:45:47.600Z,9.40
2022-08-30T00:48:14.665Z,9.48
2022-08-30T00:50:43.928Z,11.63
2022-08-30T00:53:13.933Z,8.57
2022-08-30T00:55:42.124Z,8.80
2022-08-30T00:58:13.737Z,8.30
2022-08-30T01:00:40.889Z,8.18
2022-08-30T01:03:09.203Z,10.05
2022-08-30T01:05:38.606Z,9.95
2022-08-30T01:08:06.486Z,10.18
2022-08-30T01:10:34.489Z,9.60
2022-08-30T01:13:01.676Z,8.50
2022-08-30T01:15:29.060Z,8.40
2022-08-30T01:17:57.171Z,9.50
2022-08-30T01:20:29.188Z,8.85
2022-08-30T01:23:01.221Z,8.52
2022-08-30T01:25:29.383Z,7.95
2022-08-30T01:28:01.525Z,8.60
2022-08-30T01:30:29.839Z,8.33
2022-08-30T01:32:58.988Z,7.93
2022-08-30T01:35:26.329Z,8.93
2022-08-30T01:37:53.545Z,9.07
2022-08-30T01:40:20.820Z,8.20
2022-08-30T01:42:48.581Z,8.85
2022-08-30T01:45:15.606Z,9.43
2022-08-30T01:47:42.716Z,8.50
2022-08-30T01:50:10.751Z,8.77
2022-08-30T01:52:37.888Z,8.63
2022-08-30T01:55:05.326Z,10.10
2022-08-30T01:57:32.416Z,9.10
2022-08-30T01:59:59.600Z,8.52
2022-08-30T02:02:28.728Z,9.95
2022-08-30T02:04:57.003Z,9.23
2022-08-30T02:07:25.884Z,8.80
2022-08-30T02:09:53.770Z,8.55
2022-08-30T02:12:21.616Z,9.33
2022-08-30T02:14:48.935Z,7.80
2022-08-30T02:17:16.812Z,8.20
2022-08-30T02:19:44.279Z,9.02
2022-08-30T02:22:11.909Z,8.07
2022-08-30T02:24:39.127Z,8.27
2022-08-30T02:27:06.611Z,8.45
2022-08-30T02:29:33.757Z,8.20
2022-08-30T02:32:02.997Z,8.90
2022-08-30T02:34:30.128Z,9.32
2022-08-30T02:36:57.326Z,7.60
2022-08-30T02:39:24.543Z,8.02
2022-08-30T02:41:51.612Z,7.63
2022-08-30T02:44:18.792Z,11.05
2022-08-30T02:46:45.881Z,9.52
2022-08-30T02:49:32.576Z,8.30
2022-08-30T02:52:00.051Z,9.52
2022-08-30T02:54:28.419Z,7.97
2022-08-30T02:56:56.158Z,7.37
2022-08-30T02:59:23.251Z,7.53
2022-08-30T03:01:50.506Z,7.80
2022-08-30T03:04:17.634Z,7.93
2022-08-30T03:06:47.360Z,7.30
2022-08-30T03:09:14.450Z,7.60
2022-08-30T03:11:42.615Z,7.22
2022-08-30T03:14:09.762Z,7.57
2022-08-30T03:16:36.806Z,8.20
2022-08-30T03:19:03.980Z,8.85
2022-08-30T03:21:31.111Z,8.77
2022-08-30T03:23:58.214Z,9.02
2022-08-30T03:26:25.302Z,9.97
2022-08-30T03:28:53.178Z,8.48
2022-08-30T03:31:20.455Z,8.55
2022-08-30T03:33:47.610Z,7.68
2022-08-30T03:36:14.738Z,8.00
2022-08-30T03:38:42.035Z,8.13
2022-08-30T03:41:09.395Z,9.38
2022-08-30T03:43:36.550Z,9.52
2022-08-30T03:46:03.898Z,8.25
2022-08-30T03:48:31.398Z,8.65
2022-08-30T03:50:58.667Z,7.55
2022-08-30T03:53:27.143Z,9.07
2022-08-30T03:55:54.488Z,8.20
2022-08-30T03:58:22.319Z,9.67
2022-08-30T04:00:49.557Z,8.73
2022-08-30T04:03:18.386Z,8.53
2022-08-30T04:05:45.758Z,8.55
2022-08-30T04:08:12.850Z,10.23
2022-08-30T04:10:39.960Z,9.45
2022-08-30T04:13:07.100Z,10.10
2022-08-30T04:15:33.806Z,9.13
2022-08-30T04:18:00.882Z,8.98
2022-08-30T04:20:28.038Z,8.15
2022-08-30T04:22:55.159Z,9.18
2022-08-30T04:25:22.298Z,9.13
2022-08-30T04:27:49.761Z,8.57
2022-08-30T04:30:17.509Z,9.65
2022-08-30T04:32:44.784Z,10.27
2022-08-30T04:35:12.625Z,8.20
2022-08-30T04:37:39.830Z,8.85
2022-08-30T04:40:07.389Z,9.35
2022-08-30T04:42:35.375Z,8.10
2022-08-30T04:45:03.913Z,8.73
2022-08-30T04:47:31.090Z,8.93
2022-08-30T04:49:58.377Z,7.80
2022-08-30T04:52:25.613Z,8.90
2022-08-30T04:54:56.193Z,10.18
2022-08-30T04:57:23.549Z,7.88
2022-08-30T04:59:50.869Z,8.88
2022-08-30T05:02:18.284Z,7.85
2022-08-30T05:05:05.385Z,8.63
2022-08-30T05:07:32.979Z,10.23
2022-08-30T05:10:00.400Z,8.33
2022-08-30T05:12:27.732Z,7.60
2022-08-30T05:14:54.952Z,6.43
2022-08-30T05:17:22.065Z,8.43
2022-08-30T05:19:49.184Z,6.82
2022-08-30T05:22:16.113Z,7.93
2022-08-30T05:24:43.192Z,6.13
2022-08-30T05:27:10.268Z,6.50
2022-08-30T05:29:37.391Z,9.23
2022-08-30T05:32:06.532Z,7.47
2022-08-30T05:34:34.645Z,5.90
2022-08-30T05:37:02.736Z,6.05
2022-08-30T05:39:50.687Z,5.88
2022-08-30T05:42:17.424Z,6.38
2022-08-30T05:44:44.601Z,6.28
2022-08-30T05:47:11.715Z,7.03
2022-08-30T05:49:38.863Z,6.63
2022-08-30T05:52:06.158Z,8.20
2022-08-30T05:54:33.320Z,6.80
2022-08-30T05:57:00.467Z,8.07
2022-08-30T05:59:27.642Z,7.35
2022-08-30T06:01:57.226Z,8.70
2022-08-30T06:04:24.655Z,8.82
2022-08-30T06:06:51.656Z,6.97
2022-08-30T06:09:19.087Z,7.32
2022-08-30T06:11:47.242Z,6.70
2022-08-30T06:14:14.713Z,7.85
2022-08-30T06:16:45.598Z,9.82
2022-08-30T06:19:14.360Z,6.95
2022-08-30T06:21:42.313Z,6.57
2022-08-30T06:24:10.616Z,9.10
2022-08-30T06:26:41.247Z,9.48
2022-08-30T06:29:09.063Z,6.72
2022-08-30T06:31:36.333Z,7.93
2022-08-30T06:34:04.170Z,9.82
2022-08-30T06:36:31.539Z,7.13
2022-08-30T06:38:59.431Z,8.10
2022-08-30T06:41:27.821Z,7.32
2022-08-30T06:43:55.611Z,6.43
2022-08-30T06:46:24.388Z,8.75
2022-08-30T06:48:51.616Z,8.18
2022-08-30T06:51:23.344Z,7.13
2022-08-30T06:53:50.608Z,8.55
2022-08-30T06:56:18.963Z,8.23
2022-08-30T06:58:46.896Z,7.32
2022-08-30T07:01:16.510Z,9.05
2022-08-30T07:03:43.722Z,8.13
2022-08-30T07:06:10.845Z,9.38
2022-08-30T07:08:38.501Z,7.40
2022-08-30T07:11:05.967Z,7.10
2022-08-30T07:13:33.721Z,10.60
2022-08-30T07:16:00.888Z,11.25
2022-08-30T07:18:48.249Z,7.47
2022-08-30T07:21:16.670Z,7.90
2022-08-30T07:23:44.050Z,7.53
2022-08-30T07:26:12.565Z,9.68
2022-08-30T07:28:40.503Z,9.18
2022-08-30T07:33:40.519Z,8.10
2022-08-30T07:36:07.915Z,8.45
2022-08-30T07:38:35.198Z,8.45
2022-08-30T07:41:02.389Z,10.73
2022-08-30T07:43:30.067Z,8.23
2022-08-30T07:46:01.380Z,7.30
2022-08-30T07:48:28.601Z,6.60
2022-08-30T07:50:58.964Z,7.13
2022-08-30T07:53:27.638Z,9.68
2022-08-30T07:55:54.803Z,8.57
2022-08-30T07:58:22.179Z,7.22
2022-08-30T08:00:49.317Z,7.95
2022-08-30T08:03:16.515Z,7.90
2022-08-30T08:05:45.386Z,6.78
2022-08-30T08:08:13.407Z,9.70
2022-08-30T08:10:40.775Z,9.57
2022-08-30T08:13:07.986Z,7.70
2022-08-30T08:15:36.247Z,9.13
2022-08-30T08:18:03.300Z,8.45
2022-08-30T08:20:30.695Z,8.82
2022-08-30T08:22:57.713Z,9.03
2022-08-30T08:25:24.787Z,6.68
2022-08-30T08:27:52.480Z,6.70
2022-08-30T08:30:21.442Z,7.00
2022-08-30T08:32:48.978Z,6.97
2022-08-30T08:35:16.842Z,7.32
2022-08-30T08:37:44.530Z,8.93
2022-08-30T08:40:14.722Z,8.30
2022-08-30T08:43:01.865Z,7.85
2022-08-30T08:45:35.726Z,8.00
2022-08-30T08:48:05.473Z,8.73
2022-08-30T08:50:32.506Z,7.80
2022-08-30T08:53:45.414Z,8.63
2022-08-30T08:56:13.367Z,6.20
2022-08-30T08:58:43.299Z,10.20
2022-08-30T09:01:11.008Z,6.35
2022-08-30T09:03:39.438Z,4.82
2022-08-30T09:06:33.260Z,8.48
2022-08-30T09:09:00.525Z,9.77
2022-08-30T09:11:28.773Z,7.72
2022-08-30T09:13:55.973Z,5.55
2022-08-30T09:16:43.901Z,7.05
2022-08-30T09:19:11.421Z,6.55
2022-08-30T09:21:38.560Z,7.82
2022-08-30T09:24:08.829Z,6.50
2022-08-30T09:26:37.217Z,7.18
2022-08-30T09:29:06.021Z,6.53
2022-08-30T09:31:45.872Z,5.43
2022-08-30T09:34:17.671Z,6.00
2022-08-30T09:36:51.933Z,6.05
2022-08-30T09:39:21.784Z,6.82
2022-08-30T09:41:55.060Z,6.57
2022-08-30T09:44:23.631Z,5.22
2022-08-30T09:46:51.295Z,7.13
2022-08-30T09:49:38.440Z,6.18
2022-08-30T09:52:25.447Z,5.07
2022-08-30T09:55:00.115Z,4.80
2022-08-30T09:57:47.687Z,6.20
2022-08-30T10:00:18.184Z,6.25
2022-08-30T10:03:05.187Z,6.97
2022-08-30T10:05:32.687Z,4.53
2022-08-30T10:08:05.871Z,4.28
2022-08-30T10:10:34.252Z,3.78
2022-08-30T10:13:01.399Z,6.35
2022-08-30T10:15:33.282Z,5.70
2022-08-30T10:18:20.343Z,6.38
2022-08-30T10:20:47.408Z,5.97
2022-08-30T10:23:15.786Z,4.15
2022-08-30T10:25:46.319Z,3.47
2022-08-30T10:28:14.645Z,3.70
2022-08-30T10:30:45.559Z,4.63
2022-08-30T10:33:16.447Z,4.97
2022-08-30T10:35:46.582Z,4.78
2022-08-30T10:38:34.310Z,6.07
2022-08-30T10:41:17.198Z,3.93
2022-08-30T10:44:04.346Z,4.13
2022-08-30T10:46:38.182Z,3.83
2022-08-30T10:49:06.668Z,3.85
2022-08-30T10:51:37.498Z,4.38
2022-08-30T10:54:11.857Z,4.87
2022-08-30T10:56:43.790Z,3.90
2022-08-30T10:59:11.957Z,3.50
2022-08-30T11:01:46.274Z,4.80
2022-08-30T11:04:21.914Z,9.63
2022-08-30T11:06:56.762Z,3.30
2022-08-30T11:10:01.114Z,3.60
2022-08-30T11:12:32.922Z,3.50
2022-08-30T11:15:00.974Z,5.28
2022-08-30T11:17:30.926Z,3.38
2022-08-30T11:19:59.665Z,5.80
2022-08-30T11:22:31.768Z,5.00
2022-08-30T11:25:00.489Z,3.57
2022-08-30T11:27:47.561Z,4.90
2022-08-30T11:30:33.049Z,4.15
2022-08-30T11:33:02.224Z,3.53
2022-08-30T11:35:48.648Z,5.93
2022-08-30T11:38:31.549Z,3.60
2022-08-30T11:40:59.006Z,4.85
2022-08-30T11:43:46.029Z,4.32
2022-08-30T11:46:28.756Z,3.50
2022-08-30T11:49:16.259Z,5.75
2022-08-30T11:52:08.194Z,6.43
2022-08-30T11:54:43.477Z,20.65
2022-08-30T11:57:18.934Z,6.30
2022-08-30T11:59:47.300Z,3.67
2022-08-30T12:02:34.455Z,4.53
2022-08-30T12:05:01.741Z,3.38
2022-08-30T12:07:48.766Z,6.05
2022-08-30T12:10:22.886Z,3.30
2022-08-30T12:12:52.279Z,3.50
2022-08-30T12:15:29.129Z,5.90
2022-08-30T12:18:18.829Z,7.00
2022-08-30T12:20:48.312Z,3.57
2022-08-30T12:23:18.701Z,5.30
2022-08-30T12:25:46.541Z,8.98
2022-08-30T12:28:16.152Z,3.92
2022-08-30T12:30:44.088Z,4.80
2022-08-30T12:33:15.089Z,3.42
2022-08-30T12:35:44.031Z,3.75
2022-08-30T12:38:18.236Z,5.90
2022-08-30T12:40:53.915Z,2.80
2022-08-30T12:43:24.732Z,4.93
2022-08-30T12:45:52.200Z,4.67
2022-08-30T12:48:20.023Z,6.50
2022-08-30T12:50:51.906Z,4.20
2022-08-30T12:53:24.617Z,4.07
2022-08-30T12:55:54.952Z,4.40
2022-08-30T12:58:37.685Z,2.65
2022-08-30T13:01:14.138Z,3.58
2022-08-30T13:03:41.944Z,2.92
2022-08-30T13:06:10.027Z,2.80
2022-08-30T13:08:50.691Z,3.47
2022-08-30T13:11:22.067Z,3.77
2022-08-30T13:13:52.282Z,2.88
2022-08-30T13:16:20.865Z,3.65
2022-08-30T13:19:07.899Z,3.43
2022-08-30T13:21:35.608Z,3.65
2022-08-30T13:24:05.275Z,3.00
2022-08-30T13:26:35.053Z,2.60
2022-08-30T13:29:03.811Z,3.55
2022-08-30T13:31:31.810Z,3.70
2022-08-30T13:33:59.801Z,3.78
2022-08-30T13:36:29.678Z,4.32
2022-08-30T13:38:57.711Z,3.43
2022-08-30T13:41:26.001Z,4.40
2022-08-30T13:44:16.901Z,3.00
2022-08-30T13:46:53.112Z,3.47
2022-08-30T13:52:20.408Z,3.33
2022-08-30T13:54:50.237Z,2.72
2022-08-30T13:57:53.407Z,3.22
2022-08-30T14:00:08.751Z,3.03
2022-08-30T14:02:42.246Z,4.22
2022-08-30T14:05:30.817Z,3.05
2022-08-30T14:07:59.590Z,2.70
2022-08-30T14:10:31.519Z,3.08
2022-08-30T14:13:07.980Z,3.60
2022-08-30T14:15:35.922Z,3.20
2022-08-30T14:18:07.173Z,5.70
2022-08-30T14:20:35.437Z,3.50
2022-08-30T14:23:07.566Z,3.20
2022-08-30T14:25:37.360Z,4.43
2022-08-30T14:28:04.455Z,4.70
2022-08-30T14:30:31.960Z,3.15
2022-08-30T14:33:00.476Z,2.97
2022-08-30T14:35:28.228Z,3.55
2022-08-30T14:37:55.302Z,3.10
2022-08-30T14:40:22.614Z,3.30
2022-08-30T14:42:49.742Z,4.47
2022-08-30T14:45:17.477Z,3.10
2022-08-30T14:47:44.549Z,2.83
2022-08-30T14:50:11.901Z,3.65
2022-08-30T14:52:39.541Z,3.40
2022-08-30T14:55:09.683Z,3.55
2022-08-30T14:57:38.457Z,4.28
2022-08-30T15:00:06.310Z,3.75
2022-08-30T15:02:33.473Z,4.13
2022-08-30T15:05:00.549Z,2.90
2022-08-30T15:07:27.744Z,3.70
2022-08-30T15:09:54.868Z,3.20
2022-08-30T15:12:22.082Z,3.70
2022-08-30T15:14:49.252Z,4.38
2022-08-30T15:17:17.841Z,5.55
2022-08-30T15:19:44.763Z,4.22
2022-08-30T15:22:11.873Z,4.07
2022-08-30T15:24:40.757Z,3.73
2022-08-30T15:27:07.885Z,5.90
2022-08-30T15:29:35.016Z,3.85
2022-08-30T15:32:03.441Z,3.50
2022-08-30T15:34:32.990Z,2.90
2022-08-30T15:37:00.134Z,3.85
2022-08-30T15:39:27.289Z,3.30
2022-08-30T15:41:57.343Z,3.80
2022-08-30T15:44:27.573Z,3.05
2022-08-30T15:46:54.776Z,3.88
2022-08-30T15:49:23.766Z,4.10
2022-08-30T15:51:53.891Z,7.40
2022-08-30T15:54:22.392Z,3.33
2022-08-30T15:56:49.564Z,3.92
2022-08-30T15:59:17.581Z,6.18
2022-08-30T16:01:45.418Z,3.92
2022-08-30T16:04:17.066Z,4.70
2022-08-30T16:06:46.254Z,2.80
2022-08-30T16:09:13.810Z,3.35
2022-08-30T16:11:41.296Z,3.53
2022-08-30T16:14:08.736Z,5.03
2022-08-30T16:16:37.557Z,4.73
2022-08-30T16:19:05.120Z,4.60
2022-08-30T16:21:33.509Z,2.73
2022-08-30T16:24:02.285Z,3.30
2022-08-30T16:26:30.751Z,3.55
2022-08-30T16:28:58.830Z,7.18
2022-08-30T16:31:27.242Z,3.50
2022-08-30T16:33:55.036Z,4.97
2022-08-30T16:36:25.862Z,3.73
2022-08-30T16:38:57.992Z,4.43
2022-08-30T16:41:25.563Z,4.18
2022-08-30T16:43:53.286Z,3.53
2022-08-30T16:46:23.512Z,4.22
2022-08-30T16:48:55.635Z,3.33
2022-08-30T16:51:24.247Z,5.40
2022-08-30T16:53:54.921Z,4.85
2022-08-30T16:56:24.383Z,3.40
2022-08-30T16:58:57.904Z,3.50
2022-08-30T17:01:28.896Z,3.80
2022-08-30T17:03:56.242Z,4.55
2022-08-30T17:06:23.329Z,3.83
2022-08-30T17:08:55.889Z,4.30
2022-08-30T17:11:23.832Z,3.77
2022-08-30T17:13:51.142Z,3.30
2022-08-30T17:16:22.819Z,4.40
2022-08-30T17:18:55.115Z,3.33
2022-08-30T17:21:22.236Z,4.15
2022-08-30T17:23:51.166Z,3.38
2022-08-30T17:26:18.353Z,4.47
2022-08-30T17:28:45.719Z,4.18
2022-08-30T17:31:12.916Z,5.40
2022-08-30T17:33:43.059Z,5.50
2022-08-30T17:36:12.962Z,4.20
2022-08-30T17:38:45.158Z,4.82
2022-08-30T17:41:13.497Z,5.75
2022-08-30T17:43:40.683Z,4.63
2022-08-30T17:46:09.333Z,4.22
2022-08-30T17:48:36.791Z,4.30
2022-08-30T17:51:04.193Z,4.80
2022-08-30T17:53:31.291Z,5.40
2022-08-30T17:55:59.548Z,4.72
2022-08-30T17:58:27.327Z,3.80
2022-08-30T18:00:56.984Z,4.60
2022-08-30T18:03:25.070Z,4.20
2022-08-30T18:05:52.228Z,4.43
2022-08-30T18:08:19.509Z,4.90
2022-08-30T18:10:46.791Z,4.45
2022-08-30T18:13:14.980Z,3.22
2022-08-30T18:15:44.215Z,3.67
2022-08-30T18:18:11.633Z,3.90
2022-08-30T18:20:39.935Z,4.45
2022-08-30T18:23:07.244Z,4.25
2022-08-30T18:25:34.552Z,3.53
2022-08-30T18:28:01.885Z,6.05
2022-08-30T18:30:34.569Z,7.93
2022-08-30T18:33:07.001Z,5.15
2022-08-30T18:35:34.111Z,4.40
2022-08-30T18:38:03.551Z,5.70
2022-08-30T18:40:31.184Z,4.00
2022-08-30T18:42:58.355Z,7.07
2022-08-30T18:45:25.562Z,6.05
2022-08-30T18:47:52.944Z,4.78
2022-08-30T18:50:21.553Z,4.80
2022-08-30T18:52:48.703Z,5.57
2022-08-30T18:55:15.759Z,5.93
2022-08-30T18:57:43.175Z,4.72
2022-08-30T19:00:11.002Z,3.50
2022-08-30T19:02:39.275Z,7.20
2022-08-30T19:05:10.726Z,4.88
2022-08-30T19:07:37.855Z,6.65
2022-08-30T19:10:07.071Z,5.80
2022-08-30T19:12:34.289Z,4.30
2022-08-30T19:15:01.486Z,5.18
2022-08-30T19:17:38.607Z,5.32
2022-08-30T19:20:08.366Z,5.53
2022-08-30T19:23:06.369Z,5.45
2022-08-30T19:25:25.278Z,4.88
2022-08-30T19:27:52.562Z,4.75
2022-08-30T19:33:13.944Z,4.05
2022-08-30T19:35:41.010Z,4.55
2022-08-30T19:38:08.160Z,5.47
2022-08-30T19:40:35.383Z,5.60
2022-08-30T19:43:02.594Z,5.40
2022-08-30T19:45:31.882Z,4.40
2022-08-30T19:48:01.914Z,4.97
2022-08-30T19:50:29.095Z,5.55
2022-08-30T19:52:56.656Z,5.78
2022-08-30T19:55:28.463Z,3.85
2022-08-30T19:57:57.404Z,3.92
2022-08-30T20:00:24.718Z,4.65
2022-08-30T20:02:52.059Z,5.07
2022-08-30T20:05:19.586Z,4.73
2022-08-30T20:07:51.196Z,4.78
2022-08-30T20:10:20.536Z,4.28
2022-08-30T20:12:50.198Z,5.43
2022-08-30T20:15:18.100Z,5.75
2022-08-30T20:18:03.347Z,5.65
2022-08-30T20:20:33.732Z,5.00
2022-08-30T20:23:04.288Z,6.00
2022-08-30T20:25:32.198Z,5.43
2022-08-30T20:27:59.733Z,5.03
2022-08-30T20:30:27.368Z,5.07
2022-08-30T20:32:54.848Z,5.32
2022-08-30T20:35:23.611Z,5.22
2022-08-30T20:37:50.954Z,3.70
2022-08-30T20:40:18.141Z,5.50
2022-08-30T20:42:46.291Z,5.05
2022-08-30T20:45:14.858Z,4.47
2022-08-30T20:47:42.931Z,6.07
2022-08-30T20:50:13.897Z,4.32
2022-08-30T20:52:41.570Z,4.47
2022-08-30T20:55:09.093Z,4.93
2022-08-30T20:57:36.276Z,4.72
2022-08-30T21:00:04.898Z,4.63
2022-08-30T21:02:33.529Z,5.65
2022-08-30T21:05:00.848Z,3.78
2022-08-30T21:07:27.922Z,6.25
2022-08-30T21:09:56.717Z,4.78
2022-08-30T21:12:24.029Z,4.40
2022-08-30T21:14:51.618Z,6.20
2022-08-30T21:17:18.646Z,3.97
2022-08-30T21:19:46.266Z,4.13
2022-08-30T21:22:13.565Z,4.30
2022-08-30T21:24:40.781Z,6.05
2022-08-30T21:27:08.125Z,4.25
2022-08-30T21:29:35.229Z,5.03
2022-08-30T21:32:02.294Z,5.10
2022-08-30T21:34:29.450Z,4.95
2022-08-30T21:36:56.578Z,4.85
2022-08-30T21:39:26.236Z,4.63
2022-08-30T21:41:56.783Z,4.35
2022-08-30T21:44:25.243Z,4.18
2022-08-30T21:46:53.181Z,5.00
2022-08-30T21:49:21.369Z,6.55
2022-08-30T21:51:49.295Z,5.05
2022-08-30T21:54:18.105Z,5.35
2022-08-30T21:56:46.273Z,4.90
2022-08-30T21:59:13.868Z,4.90
2022-08-30T22:01:43.191Z,4.60
2022-08-30T22:04:11.557Z,6.68
2022-08-30T22:06:40.012Z,6.03
2022-08-30T22:09:08.762Z,4.90
2022-08-30T22:11:36.621Z,5.15
2022-08-30T22:14:04.364Z,7.03
2022-08-30T22:16:31.615Z,5.68
2022-08-30T22:18:58.909Z,4.25
2022-08-30T22:21:27.596Z,5.40
2022-08-30T22:23:54.908Z,5.05
2022-08-30T22:26:22.635Z,5.43
2022-08-30T22:28:49.824Z,6.10
2022-08-30T22:31:17.599Z,7.22
2022-08-30T22:33:46.972Z,5.00
2022-08-30T22:36:16.591Z,5.63
2022-08-30T22:38:43.788Z,7.85
2022-08-30T22:41:12.160Z,5.65
2022-08-30T22:43:39.627Z,4.67
2022-08-30T22:46:07.168Z,5.60
2022-08-30T22:48:38.157Z,6.68
2022-08-30T22:51:05.289Z,4.78
2022-08-30T22:53:32.659Z,7.45
2022-08-30T22:56:01.355Z,7.18
2022-08-30T22:58:28.819Z,4.95
2022-08-30T23:00:56.333Z,5.20
2022-08-30T23:03:23.609Z,7.85
2022-08-30T23:05:50.886Z,7.53
2022-08-30T23:08:18.027Z,7.28
2022-08-30T23:10:45.620Z,7.32
2022-08-30T23:13:12.747Z,6.35
2022-08-30T23:15:39.911Z,5.90
2022-08-30T23:18:07.234Z,5.97
2022-08-30T23:20:34.408Z,6.30
2022-08-30T23:23:01.542Z,6.07
2022-08-30T23:25:52.018Z,4.93
2022-08-30T23:28:40.917Z,5.88
2022-08-30T23:31:29.258Z,5.38
2022-08-30T23:34:16.843Z,6.93
2022-08-30T23:37:03.910Z,5.93
2022-08-30T23:39:51.183Z,6.15
2022-08-30T23:42:38.216Z,5.80
2022-08-30T23:45:25.510Z,6.78
2022-08-30T23:48:12.534Z,5.60
2022-08-30T23:50:59.594Z,6.20
2022-08-30T23:53:46.230Z,5.80
2022-08-30T23:56:33.340Z,6.00
2022-08-30T23:59:20.386Z,6.10
